Time;durP1;ratioP1;P1;durP2;ratioP2;P2;SDS_P1;SDS_P2;PMS_P1;PMS_P2;Temp;Humidity;BMP_temperature;BMP_pressure;BME280_temperature;BME280_humidity;BME280_pressure;Samples;Min_cycle;Max_cycle;Signal;HPM_P1;HPM_P2
2022/01/13 00:01:11;;;;;;;;;;;17.10;99.90;;;;;;5055522;28;1985;-44
2022/01/13 00:03:37;;;;;;;;;;;17.10;99.90;;;;;;5056756;28;887;-44
2022/01/13 00:06:03;;;;;;;;;;;17.00;99.90;;;;;;5055513;28;1710;-44
2022/01/13 00:08:29;;;;;;;;;;;17.00;99.90;;;;;;5057001;28;762;-45
2022/01/13 00:10:57;;;;;;;;;;;17.00;99.90;;;;;;5056988;28;868;-44
2022/01/13 00:13:31;;;;;;;;;;;16.90;99.90;;;;;;5059771;28;969;-55
2022/01/13 00:18:50;;;;;;;;;;;16.80;99.90;;;;;;5052861;28;758;-56
2022/01/13 00:21:31;;;;;;;;;;;16.80;99.90;;;;;;5038754;28;1906;-55
2022/01/13 00:24:00;;;;;;;;;;;16.80;99.90;;;;;;5055747;28;867;-45
2022/01/13 00:26:30;;;;;;;;;;;16.70;99.90;;;;;;5056831;28;1066;-44
2022/01/13 00:28:59;;;;;;;;;;;16.70;99.90;;;;;;5056107;28;852;-44
2022/01/13 00:31:30;;;;;;;;;;;16.70;99.90;;;;;;5056488;28;887;-55
2022/01/13 00:33:58;;;;;;;;;;;16.60;99.90;;;;;;5056996;28;847;-44
2022/01/13 00:36:27;;;;;;;;;;;16.60;99.90;;;;;;5056760;28;938;-55
2022/01/13 00:38:53;;;;;;;;;;;16.60;99.90;;;;;;5055020;28;919;-55
2022/01/13 00:41:20;;;;;;;;;;;16.50;99.90;;;;;;5055419;28;1981;-44
2022/01/13 00:43:47;;;;;;;;;;;16.50;99.90;;;;;;5055763;28;1029;-55
2022/01/13 00:46:20;;;;;;;;;;;16.50;99.90;;;;;;5055501;28;936;-55
2022/01/13 00:48:48;;;;;;;;;;;16.40;99.90;;;;;;5056553;28;865;-44
2022/01/13 00:51:14;;;;;;;;;;;16.40;99.90;;;;;;5075515;28;828;-55
2022/01/13 00:53:40;;;;;;;;;;;16.40;99.90;;;;;;5075430;28;1067;-54
2022/01/13 00:56:07;;;;;;;;;;;16.30;99.90;;;;;;5075459;28;1088;-55
2022/01/13 00:58:34;;;;;;;;;;;16.30;99.90;;;;;;5074460;28;1283;-44
2022/01/13 01:01:00;;;;;;;;;;;16.30;99.90;;;;;;5074741;28;1910;-54
2022/01/13 01:03:28;;;;;;;;;;;16.30;99.90;;;;;;5074270;28;934;-44
2022/01/13 01:05:56;;;;;;;;;;;16.30;99.90;;;;;;5074943;28;750;-55
2022/01/13 01:08:23;;;;;;;;;;;16.20;99.90;;;;;;5074838;28;805;-55
2022/01/13 01:10:52;;;;;;;;;;;16.20;99.90;;;;;;5074454;28;876;-54
2022/01/13 01:13:22;;;;;;;;;;;16.20;99.90;;;;;;5067198;28;1030;-54
2022/01/13 01:15:52;;;;;;;;;;;16.10;99.90;;;;;;5055623;28;904;-44
2022/01/13 01:18:33;;;;;;;;;;;16.10;99.90;;;;;;5055189;28;798;-44
2022/01/13 01:23:44;;;;;;;;;;;16.10;99.90;;;;;;5056370;28;746;-54
2022/01/13 01:29:02;;;;;;;;;;;16.00;99.90;;;;;;5055281;28;770;-44
2022/01/13 01:31:32;;;;;;;;;;;16.00;99.90;;;;;;5050786;28;825;-54
2022/01/13 01:36:26;;;;;;;;;;;15.90;99.90;;;;;;5056187;28;1182;-44
2022/01/13 01:38:55;;;;;;;;;;;15.90;99.90;;;;;;5050735;28;864;-44
2022/01/13 01:41:24;;;;;;;;;;;15.90;99.90;;;;;;5053791;28;2072;-56
2022/01/13 01:43:52;;;;;;;;;;;15.90;99.90;;;;;;5062393;28;1410;-46
2022/01/13 01:46:20;;;;;;;;;;;15.80;99.90;;;;;;5059314;28;1249;-55
2022/01/13 01:48:46;;;;;;;;;;;15.80;99.90;;;;;;5040309;28;1366;-55
2022/01/13 01:51:12;;;;;;;;;;;15.80;99.90;;;;;;5066997;28;769;-45
2022/01/13 01:53:38;;;;;;;;;;;15.80;99.90;;;;;;5078299;28;1038;-55
2022/01/13 01:56:04;;;;;;;;;;;15.70;99.90;;;;;;5077822;28;1036;-45
2022/01/13 01:58:32;;;;;;;;;;;15.70;99.90;;;;;;5077644;28;1008;-45
2022/01/13 02:01:00;;;;;;;;;;;15.70;99.90;;;;;;5076990;28;1917;-55
2022/01/13 02:03:29;;;;;;;;;;;15.60;99.90;;;;;;5077562;28;944;-55
2022/01/13 02:05:57;;;;;;;;;;;15.60;99.90;;;;;;5077416;28;1272;-55
2022/01/13 02:08:24;;;;;;;;;;;15.60;99.90;;;;;;5077633;28;941;-55
2022/01/13 02:10:50;;;;;;;;;;;15.60;99.90;;;;;;5077555;28;855;-45
2022/01/13 02:13:22;;;;;;;;;;;15.60;99.90;;;;;;5049097;28;1017;-45
2022/01/13 02:16:01;;;;;;;;;;;15.50;99.90;;;;;;5029730;28;1053;-55
2022/01/13 02:18:31;;;;;;;;;;;15.50;99.90;;;;;;5034610;28;1229;-55
2022/01/13 02:20:57;;;;;;;;;;;15.50;99.90;;;;;;5037082;28;1910;-55
2022/01/13 02:23:31;;;;;;;;;;;15.40;99.90;;;;;;5017410;28;951;-55
2022/01/13 02:25:58;;;;;;;;;;;15.40;99.90;;;;;;5017539;28;836;-55
2022/01/13 02:28:26;;;;;;;;;;;15.40;99.90;;;;;;5017706;28;1013;-56
2022/01/13 02:30:52;;;;;;;;;;;15.40;99.90;;;;;;5017325;28;872;-45
2022/01/13 02:33:18;;;;;;;;;;;15.30;99.90;;;;;;5017358;28;1049;-45
2022/01/13 02:35:44;;;;;;;;;;;15.30;99.90;;;;;;5017317;28;943;-55
2022/01/13 02:38:11;;;;;;;;;;;15.30;99.90;;;;;;5017418;28;1113;-55
2022/01/13 02:40:37;;;;;;;;;;;15.30;99.90;;;;;;5016881;28;1981;-45
2022/01/13 02:43:05;;;;;;;;;;;15.20;99.90;;;;;;5016771;28;869;-45
2022/01/13 02:45:37;;;;;;;;;;;15.20;99.90;;;;;;5036602;28;1235;-45
2022/01/13 02:50:47;;;;;;;;;;;15.20;99.90;;;;;;5037022;28;1117;-45
2022/01/13 02:53:13;;;;;;;;;;;15.10;99.90;;;;;;5035602;28;877;-55
2022/01/13 02:55:39;;;;;;;;;;;15.10;99.90;;;;;;5034084;28;802;-55
2022/01/13 02:58:07;;;;;;;;;;;15.10;99.90;;;;;;5054489;28;906;-54
2022/01/13 03:00:33;;;;;;;;;;;15.10;99.90;;;;;;5062418;28;1023;-45
2022/01/13 03:03:01;;;;;;;;;;;15.10;99.90;;;;;;5076552;28;849;-44
2022/01/13 03:05:29;;;;;;;;;;;15.10;99.90;;;;;;5076726;28;872;-55
2022/01/13 03:07:57;;;;;;;;;;;15.00;99.90;;;;;;5055181;28;922;-45
2022/01/13 03:10:24;;;;;;;;;;;15.00;99.90;;;;;;5054681;28;831;-45
2022/01/13 03:12:50;;;;;;;;;;;15.00;99.90;;;;;;5054707;28;1178;-55
2022/01/13 03:15:16;;;;;;;;;;;15.00;99.90;;;;;;5063803;28;1129;-44
2022/01/13 03:17:42;;;;;;;;;;;15.00;99.90;;;;;;5056695;28;988;-44
2022/01/13 03:20:08;;;;;;;;;;;15.00;99.90;;;;;;5057827;28;840;-54
2022/01/13 03:22:35;;;;;;;;;;;14.90;99.90;;;;;;5057701;28;1959;-55
2022/01/13 03:25:03;;;;;;;;;;;14.90;99.90;;;;;;5057750;28;822;-55
2022/01/13 03:27:34;;;;;;;;;;;14.90;99.90;;;;;;5057213;28;821;-55
2022/01/13 03:30:06;;;;;;;;;;;14.90;99.90;;;;;;5053307;28;846;-55
2022/01/13 03:32:34;;;;;;;;;;;14.90;99.90;;;;;;5054180;28;979;-55
2022/01/13 03:35:03;;;;;;;;;;;14.80;99.90;;;;;;5057917;28;865;-45
2022/01/13 03:37:31;;;;;;;;;;;14.80;99.90;;;;;;5056565;28;1291;-45
2022/01/13 03:39:57;;;;;;;;;;;14.80;99.90;;;;;;5058795;28;1189;-55
2022/01/13 03:42:23;;;;;;;;;;;14.80;99.90;;;;;;5056471;28;1910;-55
2022/01/13 03:44:50;;;;;;;;;;;14.80;99.90;;;;;;5052500;28;1305;-55
2022/01/13 03:47:15;;;;;;;;;;;14.80;99.90;;;;;;5057236;28;923;-55
2022/01/13 03:49:42;;;;;;;;;;;14.70;99.90;;;;;;5057532;28;874;-45
2022/01/13 03:52:08;;;;;;;;;;;14.70;99.90;;;;;;5057350;28;860;-44
2022/01/13 03:54:52;;;;;;;;;;;14.70;99.90;;;;;;5052498;28;805;-55
2022/01/13 03:57:38;;;;;;;;;;;14.70;99.90;;;;;;5056982;28;758;-45
2022/01/13 04:00:22;;;;;;;;;;;14.70;99.90;;;;;;5055357;28;759;-55
2022/01/13 04:02:48;;;;;;;;;;;14.60;99.90;;;;;;5056779;28;1969;-45
2022/01/13 04:05:14;;;;;;;;;;;14.60;99.90;;;;;;5056866;28;845;-55
2022/01/13 04:07:40;;;;;;;;;;;14.60;99.90;;;;;;5057060;28;790;-55
2022/01/13 04:10:26;;;;;;;;;;;14.60;99.90;;;;;;5051858;28;829;-55
2022/01/13 04:12:52;;;;;;;;;;;14.60;99.90;;;;;;5038809;28;987;-54
2022/01/13 04:15:20;;;;;;;;;;;14.60;99.90;;;;;;5056690;28;917;-45
2022/01/13 04:17:46;;;;;;;;;;;14.50;99.90;;;;;;5056448;28;1719;-55
2022/01/13 04:20:12;;;;;;;;;;;14.50;99.90;;;;;;5056989;28;920;-55
2022/01/13 04:22:40;;;;;;;;;;;14.50;99.90;;;;;;5060626;28;1969;-55
2022/01/13 04:25:07;;;;;;;;;;;14.50;99.90;;;;;;5056860;28;785;-55
2022/01/13 04:27:38;;;;;;;;;;;14.50;99.90;;;;;;5056493;28;944;-55
2022/01/13 04:32:41;;;;;;;;;;;14.50;99.90;;;;;;5056717;28;837;-55
2022/01/13 04:35:09;;;;;;;;;;;14.40;99.90;;;;;;5057006;28;939;-45
2022/01/13 04:37:36;;;;;;;;;;;14.40;99.90;;;;;;5056884;28;886;-55
2022/01/13 04:40:04;;;;;;;;;;;14.40;99.90;;;;;;5056858;28;790;-45
2022/01/13 04:42:35;;;;;;;;;;;14.40;99.90;;;;;;5056547;28;1902;-45
2022/01/13 04:45:03;;;;;;;;;;;14.40;99.90;;;;;;5056174;28;1014;-55
2022/01/13 04:47:30;;;;;;;;;;;14.30;99.90;;;;;;5056767;28;885;-45
2022/01/13 04:49:56;;;;;;;;;;;14.30;99.90;;;;;;5055153;28;988;-55
2022/01/13 04:52:22;;;;;;;;;;;14.30;99.90;;;;;;5056183;28;1072;-44
2022/01/13 04:54:48;;;;;;;;;;;14.30;99.90;;;;;;5056455;28;864;-55
2022/01/13 04:57:17;;;;;;;;;;;14.30;99.90;;;;;;5056380;28;852;-45
2022/01/13 04:59:44;;;;;;;;;;;14.20;99.90;;;;;;5056280;28;746;-45
2022/01/13 05:02:10;;;;;;;;;;;14.30;99.90;;;;;;5056384;28;1910;-45
2022/01/13 05:04:39;;;;;;;;;;;14.20;99.90;;;;;;5055433;28;950;-44
2022/01/13 05:07:06;;;;;;;;;;;14.20;99.90;;;;;;5055884;28;817;-45
2022/01/13 05:09:33;;;;;;;;;;;14.20;99.90;;;;;;5056343;28;785;-45
2022/01/13 05:12:01;;;;;;;;;;;14.20;99.90;;;;;;5056183;28;822;-55
2022/01/13 05:14:27;;;;;;;;;;;14.20;99.90;;;;;;5053030;28;1026;-56
2022/01/13 05:19:29;;;;;;;;;;;14.10;99.90;;;;;;5060361;28;887;-45
2022/01/13 05:24:25;;;;;;;;;;;14.10;99.90;;;;;;5060292;28;998;-45
2022/01/13 05:26:51;;;;;;;;;;;14.10;99.90;;;;;;5059914;28;765;-55
2022/01/13 05:29:20;;;;;;;;;;;14.10;99.90;;;;;;5059669;28;967;-55
2022/01/13 05:31:47;;;;;;;;;;;14.00;99.90;;;;;;5060095;28;1013;-45
2022/01/13 05:34:13;;;;;;;;;;;14.00;99.90;;;;;;5060118;28;899;-45
2022/01/13 05:36:40;;;;;;;;;;;14.00;99.90;;;;;;5062421;28;1254;-55
2022/01/13 05:39:07;;;;;;;;;;;14.00;99.90;;;;;;5071393;28;1322;-45
2022/01/13 05:41:33;;;;;;;;;;;14.00;99.90;;;;;;5058147;28;1905;-56
2022/01/13 05:44:00;;;;;;;;;;;14.00;99.90;;;;;;5059065;28;1306;-56
2022/01/13 05:46:26;;;;;;;;;;;14.00;99.90;;;;;;5059173;28;1039;-55
2022/01/13 05:48:54;;;;;;;;;;;14.00;99.90;;;;;;5059730;28;804;-56
2022/01/13 05:51:21;;;;;;;;;;;13.90;99.90;;;;;;5059097;28;870;-55
2022/01/13 05:53:48;;;;;;;;;;;13.90;99.90;;;;;;5059539;28;832;-55
2022/01/13 05:56:15;;;;;;;;;;;13.90;99.90;;;;;;5059502;28;873;-55
2022/01/13 05:58:41;;;;;;;;;;;13.90;99.90;;;;;;5059256;28;797;-45
2022/01/13 06:01:07;;;;;;;;;;;13.90;99.90;;;;;;5059449;28;1967;-55
2022/01/13 06:03:33;;;;;;;;;;;13.90;99.90;;;;;;5059264;28;808;-55
2022/01/13 06:05:59;;;;;;;;;;;13.90;99.90;;;;;;5059432;28;1067;-55
2022/01/13 06:08:26;;;;;;;;;;;13.90;99.90;;;;;;5059227;28;857;-56
2022/01/13 06:10:53;;;;;;;;;;;13.90;99.90;;;;;;5060193;28;1108;-55
2022/01/13 06:13:21;;;;;;;;;;;13.90;99.90;;;;;;5057095;28;1199;-56
2022/01/13 06:15:49;;;;;;;;;;;13.90;99.90;;;;;;5058838;28;773;-56
2022/01/13 06:18:15;;;;;;;;;;;14.00;99.90;;;;;;5058955;28;1249;-56
2022/01/13 06:20:42;;;;;;;;;;;13.90;99.90;;;;;;5058971;28;996;-55
2022/01/13 06:23:08;;;;;;;;;;;14.00;99.90;;;;;;5058929;28;1910;-56
2022/01/13 06:25:35;;;;;;;;;;;14.00;99.90;;;;;;5058782;28;921;-45
2022/01/13 06:28:01;;;;;;;;;;;14.10;99.90;;;;;;5057700;28;881;-55
2022/01/13 06:30:27;;;;;;;;;;;14.10;99.90;;;;;;5059003;28;807;-55
2022/01/13 06:32:55;;;;;;;;;;;14.20;99.90;;;;;;5057876;28;878;-45
2022/01/13 06:35:22;;;;;;;;;;;14.30;99.90;;;;;;5058838;28;817;-45
2022/01/13 06:37:49;;;;;;;;;;;14.30;99.90;;;;;;5058621;28;810;-45
2022/01/13 06:40:16;;;;;;;;;;;14.30;99.90;;;;;;5058601;28;836;-45
2022/01/13 06:42:42;;;;;;;;;;;14.40;99.90;;;;;;5056821;28;1902;-45
2022/01/13 06:45:10;;;;;;;;;;;14.40;99.90;;;;;;5057928;28;1144;-55
2022/01/13 06:47:39;;;;;;;;;;;14.50;99.90;;;;;;5058783;28;865;-45
2022/01/13 06:50:07;;;;;;;;;;;14.50;99.90;;;;;;5058695;28;801;-55
2022/01/13 06:52:33;;;;;;;;;;;14.50;99.90;;;;;;5073781;28;954;-45
2022/01/13 06:54:59;;;;;;;;;;;14.60;99.90;;;;;;5075803;28;912;-55
2022/01/13 06:57:26;;;;;;;;;;;14.60;99.90;;;;;;5054752;28;837;-45
2022/01/13 06:59:53;;;;;;;;;;;14.60;99.90;;;;;;5054859;28;805;-45
2022/01/13 07:02:22;;;;;;;;;;;14.70;99.90;;;;;;5076734;28;1977;-45
2022/01/13 07:04:48;;;;;;;;;;;14.70;99.90;;;;;;5076662;28;804;-55
2022/01/13 07:07:15;;;;;;;;;;;14.70;99.90;;;;;;5076565;28;766;-45
2022/01/13 07:09:41;;;;;;;;;;;14.70;99.90;;;;;;5076327;28;1846;-45
2022/01/13 07:12:09;;;;;;;;;;;14.80;99.90;;;;;;5076232;28;871;-55
2022/01/13 07:14:35;;;;;;;;;;;14.80;99.90;;;;;;5059226;28;1062;-45
2022/01/13 07:17:01;;;;;;;;;;;14.80;99.90;;;;;;5057882;28;1465;-44
2022/01/13 07:19:28;;;;;;;;;;;14.80;99.90;;;;;;5057983;28;887;-55
2022/01/13 07:21:55;;;;;;;;;;;14.80;99.90;;;;;;5057861;28;1914;-55
2022/01/13 07:24:23;;;;;;;;;;;14.80;99.90;;;;;;5058790;28;1380;-55
2022/01/13 07:26:49;;;;;;;;;;;14.90;99.90;;;;;;5057601;28;1015;-55
2022/01/13 07:29:15;;;;;;;;;;;14.90;99.90;;;;;;5057940;28;776;-45
2022/01/13 07:31:41;;;;;;;;;;;14.90;99.90;;;;;;5073569;28;894;-44
2022/01/13 07:34:07;;;;;;;;;;;14.90;99.90;;;;;;5067352;28;1340;-56
2022/01/13 07:36:34;;;;;;;;;;;14.90;99.90;;;;;;5057420;28;1146;-45
2022/01/13 07:39:02;;;;;;;;;;;14.90;99.90;;;;;;5063891;28;1061;-55
2022/01/13 07:41:30;;;;;;;;;;;15.00;99.90;;;;;;5055103;28;1905;-45
2022/01/13 07:43:56;;;;;;;;;;;15.00;99.90;;;;;;5056897;28;1499;-45
2022/01/13 07:46:24;;;;;;;;;;;15.00;99.90;;;;;;5075241;28;901;-45
2022/01/13 07:48:51;;;;;;;;;;;15.10;99.90;;;;;;5055119;28;1042;-44
2022/01/13 07:51:17;;;;;;;;;;;15.00;99.90;;;;;;5074014;28;893;-44
2022/01/13 07:53:43;;;;;;;;;;;15.10;99.90;;;;;;5075577;28;829;-44
2022/01/13 07:56:09;;;;;;;;;;;15.10;99.90;;;;;;5075746;28;1008;-45
2022/01/13 07:58:35;;;;;;;;;;;15.10;99.90;;;;;;5065314;28;1828;-56
2022/01/13 08:01:02;;;;;;;;;;;15.10;99.90;;;;;;5056692;28;850;-55
2022/01/13 08:03:28;;;;;;;;;;;15.10;99.90;;;;;;5057236;28;1909;-55
2022/01/13 08:05:55;;;;;;;;;;;15.20;99.90;;;;;;5038727;28;1559;-55
2022/01/13 08:08:21;;;;;;;;;;;15.20;99.90;;;;;;5022448;28;949;-45
2022/01/13 08:10:47;;;;;;;;;;;15.20;99.90;;;;;;5056982;28;843;-55
2022/01/13 08:13:13;;;;;;;;;;;15.20;99.90;;;;;;5059577;28;981;-55
2022/01/13 08:15:40;;;;;;;;;;;15.20;99.90;;;;;;5058390;28;980;-55
2022/01/13 08:20:51;;;;;;;;;;;15.30;99.90;;;;;;5056784;28;800;-55
2022/01/13 08:23:17;;;;;;;;;;;15.30;99.90;;;;;;5056689;28;1966;-55
2022/01/13 08:25:43;;;;;;;;;;;15.30;99.90;;;;;;5056998;28;886;-45
2022/01/13 08:28:10;;;;;;;;;;;15.40;99.90;;;;;;5059051;28;1794;-49
2022/01/13 08:30:36;;;;;;;;;;;15.40;99.90;;;;;;5054622;28;1305;-56
2022/01/13 08:33:02;;;;;;;;;;;15.50;99.90;;;;;;5062775;28;1193;-55
2022/01/13 08:35:30;;;;;;;;;;;15.50;99.90;;;;;;5058858;28;949;-56
2022/01/13 08:38:04;;;;;;;;;;;15.40;99.90;;;;;;5062937;28;1191;-55
2022/01/13 08:40:32;;;;;;;;;;;15.40;99.90;;;;;;5065938;28;1845;-45
2022/01/13 08:42:59;;;;;;;;;;;15.40;99.90;;;;;;5056258;28;1965;-55
2022/01/13 08:45:26;;;;;;;;;;;15.40;99.90;;;;;;5054812;28;1182;-55
2022/01/13 08:47:52;;;;;;;;;;;15.40;99.90;;;;;;5072130;28;820;-55
2022/01/13 08:50:21;;;;;;;;;;;15.50;99.90;;;;;;5076431;28;904;-45
2022/01/13 08:52:47;;;;;;;;;;;15.50;99.90;;;;;;5042830;28;1528;-55
2022/01/13 08:55:13;;;;;;;;;;;15.50;99.90;;;;;;5075664;28;977;-55
2022/01/13 08:57:39;;;;;;;;;;;15.50;99.90;;;;;;5072641;28;937;-45
2022/01/13 09:00:07;;;;;;;;;;;15.50;99.90;;;;;;5060496;28;1314;-45
2022/01/13 09:02:34;;;;;;;;;;;15.50;99.90;;;;;;5067545;28;1909;-44
2022/01/13 09:05:01;;;;;;;;;;;15.40;99.90;;;;;;5078904;28;832;-44
2022/01/13 09:07:27;;;;;;;;;;;15.50;99.90;;;;;;5057057;28;1109;-55
2022/01/13 09:09:53;;;;;;;;;;;15.50;99.90;;;;;;5060117;28;861;-45
2022/01/13 09:12:19;;;;;;;;;;;15.50;99.90;;;;;;5061518;28;1457;-45
2022/01/13 09:14:45;;;;;;;;;;;15.50;99.90;;;;;;5060595;28;1021;-44
2022/01/13 09:17:20;;;;;;;;;;;15.50;99.90;;;;;;5067278;28;1375;-44
2022/01/13 09:19:47;;;;;;;;;;;15.50;99.90;;;;;;5067672;28;961;-55
2022/01/13 09:22:13;;;;;;;;;;;15.50;99.90;;;;;;5070519;28;1905;-44
2022/01/13 09:24:39;;;;;;;;;;;15.60;99.90;;;;;;5078187;28;1016;-55
2022/01/13 09:27:06;;;;;;;;;;;15.60;99.90;;;;;;5066597;28;1286;-55
2022/01/13 09:29:33;;;;;;;;;;;15.60;99.90;;;;;;5059643;28;1305;-55
2022/01/13 09:31:59;;;;;;;;;;;15.60;99.90;;;;;;5055407;28;785;-45
2022/01/13 09:34:25;;;;;;;;;;;15.60;99.90;;;;;;5059989;28;1178;-45
2022/01/13 09:36:51;;;;;;;;;;;15.60;99.90;;;;;;5067532;28;1159;-45
2022/01/13 09:39:18;;;;;;;;;;;15.60;99.90;;;;;;5078248;28;769;-44
2022/01/13 09:41:45;;;;;;;;;;;15.70;99.90;;;;;;5078198;28;1905;-44
2022/01/13 09:44:13;;;;;;;;;;;15.70;99.90;;;;;;5064082;28;995;-55
2022/01/13 09:46:39;;;;;;;;;;;15.80;99.90;;;;;;5059724;28;853;-45
2022/01/13 09:49:07;;;;;;;;;;;15.90;99.90;;;;;;5059520;28;846;-45
2022/01/13 09:51:34;;;;;;;;;;;16.00;99.90;;;;;;5059516;28;908;-44
2022/01/13 09:54:02;;;;;;;;;;;16.10;99.90;;;;;;5059481;28;821;-45
2022/01/13 09:56:29;;;;;;;;;;;16.10;99.90;;;;;;5058798;28;915;-45
2022/01/13 09:58:55;;;;;;;;;;;16.20;99.90;;;;;;5059186;28;884;-46
2022/01/13 10:01:21;;;;;;;;;;;16.30;99.90;;;;;;5056405;28;1078;-56
2022/01/13 10:03:48;;;;;;;;;;;16.40;99.90;;;;;;5058572;28;1906;-56
2022/01/13 10:06:18;;;;;;;;;;;16.50;99.90;;;;;;5058952;28;786;-54
2022/01/13 10:08:45;;;;;;;;;;;16.60;99.90;;;;;;5058022;28;1003;-54
2022/01/13 10:11:23;;;;;;;;;;;16.70;99.90;;;;;;5058830;28;1037;-54
2022/01/13 10:14:17;;;;;;;;;;;16.80;99.90;;;;;;5059907;28;1315;-54
2022/01/13 10:16:49;;;;;;;;;;;16.80;99.90;;;;;;5060466;28;1037;-54
2022/01/13 10:19:45;;;;;;;;;;;16.90;99.90;;;;;;5058744;28;1048;-54
2022/01/13 10:22:12;;;;;;;;;;;16.90;99.90;;;;;;5049345;28;1905;-54
2022/01/13 10:24:40;;;;;;;;;;;17.00;99.90;;;;;;5058192;28;927;-54
2022/01/13 10:27:09;;;;;;;;;;;17.00;99.90;;;;;;5058825;28;861;-55
2022/01/13 10:29:37;;;;;;;;;;;17.10;99.90;;;;;;5058705;28;737;-44
2022/01/13 10:32:03;;;;;;;;;;;17.10;99.90;;;;;;5058796;28;762;-44
2022/01/13 10:34:32;;;;;;;;;;;17.10;99.90;;;;;;5059654;28;1074;-45
2022/01/13 10:37:11;;;;;;;;;;;17.10;99.90;;;;;;5063118;28;1320;-55
2022/01/13 10:39:49;;;;;;;;;;;17.10;99.90;;;;;;5051798;28;1370;-55
2022/01/13 10:45:01;;;;;;;;;;;17.10;99.90;;;;;;5053743;28;1293;-55
2022/01/13 10:47:28;;;;;;;;;;;17.10;99.90;;;;;;5065117;28;1323;-56
2022/01/13 10:49:58;;;;;;;;;;;17.10;99.90;;;;;;5076547;28;872;-45
2022/01/13 10:52:26;;;;;;;;;;;17.10;99.90;;;;;;5076371;28;771;-45
2022/01/13 10:54:52;;;;;;;;;;;17.10;99.90;;;;;;5071108;28;1552;-45
2022/01/13 10:57:20;;;;;;;;;;;17.10;99.90;;;;;;5067768;28;1066;-45
2022/01/13 10:59:46;;;;;;;;;;;17.10;99.90;;;;;;5057880;28;849;-45
2022/01/13 11:02:12;;;;;;;;;;;17.10;99.90;;;;;;5055252;28;1906;-45
2022/01/13 11:04:39;;;;;;;;;;;17.20;99.90;;;;;;5066571;28;885;-45
2022/01/13 11:07:15;;;;;;;;;;;17.20;99.90;;;;;;5066861;28;1157;-45
2022/01/13 11:09:43;;;;;;;;;;;17.20;99.90;;;;;;5054268;28;798;-56
2022/01/13 11:12:14;;;;;;;;;;;17.20;99.90;;;;;;5057323;28;763;-56
2022/01/13 11:14:43;;;;;;;;;;;17.20;99.90;;;;;;5056984;28;1019;-55
2022/01/13 11:17:10;;;;;;;;;;;17.20;99.90;;;;;;5057110;28;899;-55
2022/01/13 11:19:40;;;;;;;;;;;17.20;99.90;;;;;;5057887;28;862;-55
2022/01/13 11:22:06;;;;;;;;;;;17.30;99.90;;;;;;5057110;28;1905;-56
2022/01/13 11:24:32;;;;;;;;;;;17.30;99.90;;;;;;5065730;28;1443;-56
2022/01/13 11:26:59;;;;;;;;;;;17.40;99.90;;;;;;5075993;28;813;-56
2022/01/13 11:29:25;;;;;;;;;;;17.50;99.90;;;;;;5071821;28;1228;-56
2022/01/13 11:31:51;;;;;;;;;;;17.50;99.90;;;;;;5059477;28;1312;-53
2022/01/13 11:34:18;;;;;;;;;;;17.50;99.90;;;;;;5055457;28;1002;-55
2022/01/13 11:36:44;;;;;;;;;;;17.50;99.90;;;;;;5060932;28;2026;-56
2022/01/13 11:39:10;;;;;;;;;;;17.50;99.90;;;;;;5075829;28;898;-56
2022/01/13 11:41:59;;;;;;;;;;;17.50;99.90;;;;;;5075554;28;909;-55
2022/01/13 11:44:25;;;;;;;;;;;17.50;99.90;;;;;;5070043;28;1800;-45
2022/01/13 11:46:51;;;;;;;;;;;17.60;99.90;;;;;;5075945;28;950;-45
2022/01/13 11:49:31;;;;;;;;;;;17.60;99.90;;;;;;5075589;28;864;-44
2022/01/13 11:52:00;;;;;;;;;;;17.60;99.90;;;;;;5074957;28;820;-46
2022/01/13 11:54:31;;;;;;;;;;;17.60;99.90;;;;;;5075416;28;882;-45
2022/01/13 11:57:23;;;;;;;;;;;17.60;99.90;;;;;;5075049;28;1028;-45
2022/01/13 12:00:08;;;;;;;;;;;17.60;99.90;;;;;;5073088;28;1151;-45
2022/01/13 12:02:44;;;;;;;;;;;17.60;99.90;;;;;;5075147;28;1906;-45
2022/01/13 12:05:15;;;;;;;;;;;17.70;99.90;;;;;;5057154;28;1023;-45
2022/01/13 12:07:43;;;;;;;;;;;17.70;99.90;;;;;;5055640;28;930;-45
2022/01/13 12:10:10;;;;;;;;;;;17.70;99.90;;;;;;5060859;28;1215;-45
2022/01/13 12:12:37;;;;;;;;;;;17.70;99.90;;;;;;5056666;28;912;-45
2022/01/13 12:15:12;;;;;;;;;;;17.70;99.90;;;;;;5056816;28;889;-45
2022/01/13 12:17:44;;;;;;;;;;;17.80;99.90;;;;;;5056597;28;896;-45
2022/01/13 12:20:50;;;;;;;;;;;17.80;99.90;;;;;;5056551;28;1025;-45
2022/01/13 12:23:34;;;;;;;;;;;17.90;99.90;;;;;;5034783;28;1967;-45
2022/01/13 12:26:00;;;;;;;;;;;17.90;99.90;;;;;;5035072;28;787;-45
2022/01/13 12:28:43;;;;;;;;;;;17.90;99.90;;;;;;5034908;28;817;-43
2022/01/13 12:31:29;;;;;;;;;;;18.00;99.90;;;;;;5034936;28;870;-46
2022/01/13 12:33:55;;;;;;;;;;;18.00;99.90;;;;;;5036591;28;1198;-44
2022/01/13 12:36:21;;;;;;;;;;;18.00;99.90;;;;;;5044752;28;1258;-44
2022/01/13 12:38:58;;;;;;;;;;;18.00;99.90;;;;;;5034840;28;972;-46
2022/01/13 12:41:26;;;;;;;;;;;18.00;99.90;;;;;;5034712;28;904;-45
2022/01/13 12:44:12;;;;;;;;;;;18.00;99.90;;;;;;5033241;28;1914;-45
2022/01/13 12:46:39;;;;;;;;;;;18.00;99.90;;;;;;5033440;28;905;-44
2022/01/13 12:49:07;;;;;;;;;;;18.10;99.90;;;;;;5013833;28;1024;-44
2022/01/13 12:51:33;;;;;;;;;;;18.10;99.90;;;;;;5033518;28;805;-44
2022/01/13 12:53:59;;;;;;;;;;;18.10;99.90;;;;;;5041973;28;948;-57
2022/01/13 12:56:27;;;;;;;;;;;18.10;99.90;;;;;;5055445;28;782;-44
2022/01/13 12:58:54;;;;;;;;;;;18.10;99.90;;;;;;5055414;28;865;-44
2022/01/13 13:01:25;;;;;;;;;;;18.10;99.90;;;;;;5054955;28;1044;-44
2022/01/13 13:04:05;;;;;;;;;;;18.20;99.90;;;;;;5069515;28;1964;-45
2022/01/13 13:06:33;;;;;;;;;;;18.20;99.90;;;;;;5073099;28;898;-44
2022/01/13 13:09:06;;;;;;;;;;;18.20;99.90;;;;;;5073620;28;761;-44
2022/01/13 13:11:34;;;;;;;;;;;18.30;99.90;;;;;;5073374;28;876;-44
2022/01/13 13:14:01;;;;;;;;;;;18.30;99.90;;;;;;5061083;28;781;-44
2022/01/13 13:16:27;;;;;;;;;;;18.30;99.90;;;;;;5055360;28;853;-44
2022/01/13 13:18:53;;;;;;;;;;;18.30;99.90;;;;;;5060248;28;1250;-44
2022/01/13 13:21:19;;;;;;;;;;;18.30;99.90;;;;;;5073370;28;903;-44
2022/01/13 13:23:45;;;;;;;;;;;18.30;99.90;;;;;;5073035;28;1898;-44
2022/01/13 13:26:14;;;;;;;;;;;18.30;99.90;;;;;;5073341;28;789;-44
2022/01/13 13:28:44;;;;;;;;;;;18.30;99.90;;;;;;5073496;28;800;-44
2022/01/13 13:31:16;;;;;;;;;;;18.40;99.90;;;;;;5073319;28;773;-44
2022/01/13 13:33:44;;;;;;;;;;;18.40;99.90;;;;;;5072735;28;878;-45
2022/01/13 13:36:14;;;;;;;;;;;18.40;99.90;;;;;;5067610;28;1173;-44
2022/01/13 13:38:46;;;;;;;;;;;18.40;99.90;;;;;;5058978;28;1195;-44
2022/01/13 13:41:14;;;;;;;;;;;18.40;99.90;;;;;;5055542;28;1242;-44
2022/01/13 13:43:40;;;;;;;;;;;18.40;99.90;;;;;;5016621;28;1143534;-55
2022/01/13 13:46:06;;;;;;;;;;;18.40;99.90;;;;;;5056888;28;1405;-54
2022/01/13 13:48:32;;;;;;;;;;;18.30;99.90;;;;;;5062900;28;1249;-55
2022/01/13 13:50:58;;;;;;;;;;;18.30;99.90;;;;;;5061120;28;1226;-54
2022/01/13 13:53:25;;;;;;;;;;;18.30;99.90;;;;;;5058198;28;1190;-55
2022/01/13 13:56:00;;;;;;;;;;;18.40;99.90;;;;;;5061366;28;1206;-55
2022/01/13 13:58:27;;;;;;;;;;;18.40;99.90;;;;;;5057274;28;1303;-55
2022/01/13 14:01:04;;;;;;;;;;;18.40;99.90;;;;;;5061579;28;1210;-55
2022/01/13 14:03:40;;;;;;;;;;;18.40;99.90;;;;;;5059497;28;1974;-55
2022/01/13 14:06:07;;;;;;;;;;;18.40;99.90;;;;;;5077511;28;790;-55
2022/01/13 14:08:50;;;;;;;;;;;18.40;99.90;;;;;;5077594;28;917;-55
2022/01/13 14:11:16;;;;;;;;;;;18.40;99.90;;;;;;5040116;28;1070;-55
2022/01/13 14:13:42;;;;;;;;;;;18.40;99.90;;;;;;5066363;28;865;-45
2022/01/13 14:16:08;;;;;;;;;;;18.40;99.90;;;;;;5059699;28;1139;-45
2022/01/13 14:18:36;;;;;;;;;;;18.30;99.90;;;;;;5066615;28;937;-44
2022/01/13 14:21:04;;;;;;;;;;;18.30;99.90;;;;;;5058746;28;793;-45
2022/01/13 14:23:48;;;;;;;;;;;18.30;99.90;;;;;;5058756;28;1906;-44
2022/01/13 14:26:15;;;;;;;;;;;18.30;99.90;;;;;;5058236;28;940;-44
2022/01/13 14:28:45;;;;;;;;;;;18.30;99.90;;;;;;5057117;28;929;-45
2022/01/13 14:31:12;;;;;;;;;;;18.20;99.90;;;;;;5058448;28;856;-44
2022/01/13 14:33:39;;;;;;;;;;;18.20;99.90;;;;;;5058909;28;884;-45
2022/01/13 14:36:21;;;;;;;;;;;18.20;99.90;;;;;;5060409;28;1035;-45
2022/01/13 14:38:53;;;;;;;;;;;18.20;99.90;;;;;;5058785;28;879;-44
2022/01/13 14:41:39;;;;;;;;;;;18.20;99.90;;;;;;5058245;28;844;-45
2022/01/13 14:44:09;;;;;;;;;;;18.20;99.90;;;;;;5058009;28;1902;-44
2022/01/13 14:46:36;;;;;;;;;;;18.20;99.90;;;;;;5057492;28;830;-44
2022/01/13 14:49:04;;;;;;;;;;;18.20;99.90;;;;;;5057612;28;861;-45
2022/01/13 14:51:30;;;;;;;;;;;18.20;99.90;;;;;;5057980;28;781;-44
2022/01/13 14:53:58;;;;;;;;;;;18.20;99.90;;;;;;5058302;28;899;-44
2022/01/13 14:56:24;;;;;;;;;;;18.20;99.90;;;;;;5056856;28;833;-45
2022/01/13 14:58:52;;;;;;;;;;;18.20;99.90;;;;;;5058252;28;769;-44
2022/01/13 15:01:18;;;;;;;;;;;18.20;99.90;;;;;;5057717;28;843;-44
2022/01/13 15:03:44;;;;;;;;;;;18.20;99.90;;;;;;5058130;28;1969;-55
2022/01/13 15:06:11;;;;;;;;;;;18.20;99.90;;;;;;5060880;28;1103;-55
2022/01/13 15:08:37;;;;;;;;;;;18.20;99.90;;;;;;5066024;28;951;-55
2022/01/13 15:11:03;;;;;;;;;;;18.20;99.90;;;;;;5042121;22;1830;-55